Time;durP1;ratioP1;P1;durP2;ratioP2;P2;SDS_P1;SDS_P2;PMS_P1;PMS_P2;Temp;Humidity;BMP_temperature;BMP_pressure;BME280_temperature;BME280_humidity;BME280_pressure;Samples;Min_cycle;Max_cycle;Signal;HPM_P1;HPM_P2
2021/01/31 00:00:26;;;;;;;33.20;12.95;;;-0.80;99.90;;;;;;5021833;28;20426;-79
2021/01/31 00:02:51;;;;;;;34.83;12.32;;;-0.90;99.90;;;;;;5018375;28;20044;-79
2021/01/31 00:05:20;;;;;;;35.15;13.15;;;-1.00;99.90;;;;;;5025184;28;20021;-78
2021/01/31 00:07:45;;;;;;;;;;;-0.90;99.90;;;;;;5019161;28;20030;-78
2021/01/31 00:10:13;;;;;;;31.00;12.48;;;-1.00;99.90;;;;;;5013464;28;19916;-80
2021/01/31 00:12:38;;;;;;;28.73;12.35;;;-0.90;99.90;;;;;;5024415;28;20378;-78
2021/01/31 00:15:07;;;;;;;32.25;13.00;;;-0.90;99.90;;;;;;5026372;28;20029;-78
2021/01/31 00:17:34;;;;;;;30.02;12.48;;;-0.90;99.90;;;;;;5024742;28;20488;-78
2021/01/31 00:19:59;;;;;;;28.98;11.32;;;-1.00;99.90;;;;;;5033912;28;20029;-79
2021/01/31 00:22:25;;;;;;;31.98;13.15;;;-0.90;99.90;;;;;;5026612;28;20045;-78
2021/01/31 00:24:54;;;;;;;29.88;12.15;;;-0.90;99.90;;;;;;5025029;28;20105;-78
2021/01/31 00:27:21;;;;;;;29.63;12.85;;;-0.90;99.90;;;;;;5025255;28;20036;-78
2021/01/31 00:29:47;;;;;;;31.92;12.80;;;-1.10;99.90;;;;;;5026727;28;20108;-78
2021/01/31 00:32:13;;;;;;;28.08;12.02;;;-1.00;99.90;;;;;;5017161;28;20068;-78
2021/01/31 00:34:38;;;;;;;30.67;13.18;;;-1.10;99.90;;;;;;5030849;28;20021;-78
2021/01/31 00:37:04;;;;;;;27.25;12.27;;;-0.90;99.90;;;;;;5034458;28;20021;-79
2021/01/31 00:39:30;;;;;;;33.10;13.27;;;-0.90;99.90;;;;;;5028263;28;20034;-78
2021/01/31 00:41:56;;;;;;;34.28;12.75;;;-1.00;99.90;;;;;;5023977;28;20076;-78
2021/01/31 00:44:22;;;;;;;30.27;11.90;;;-1.10;99.90;;;;;;5020672;28;20030;-78
2021/01/31 00:46:48;;;;;;;30.95;13.52;;;-1.20;99.90;;;;;;5025375;28;20034;-78
2021/01/31 00:49:13;;;;;;;33.17;13.43;;;-1.20;99.90;;;;;;5022738;28;20034;-78
2021/01/31 00:51:39;;;;;;;28.23;13.00;;;-1.10;99.90;;;;;;5025808;28;20021;-78
2021/01/31 00:54:04;;;;;;;39.47;13.15;;;-1.10;99.90;;;;;;5034214;28;20022;-78
2021/01/31 00:56:30;;;;;;;30.48;12.60;;;-1.10;99.90;;;;;;5025548;28;20026;-76
2021/01/31 00:58:56;;;;;;;32.03;12.40;;;-1.20;99.90;;;;;;5025319;28;20037;-79
2021/01/31 01:01:21;;;;;;;33.55;12.88;;;-1.20;99.90;;;;;;5023332;28;20033;-76
2021/01/31 01:03:47;;;;;;;32.92;13.18;;;-1.20;99.90;;;;;;5018395;28;20033;-77
2021/01/31 01:06:12;;;;;;;27.77;11.80;;;-1.20;99.90;;;;;;5029369;28;20029;-77
2021/01/31 01:08:38;;;;;;;33.03;12.95;;;-1.20;99.90;;;;;;5030040;28;20501;-78
2021/01/31 01:11:05;;;;;;;38.67;14.27;;;-1.20;99.90;;;;;;5028270;28;20025;-77
2021/01/31 01:13:31;;;;;;;30.50;12.57;;;-1.20;99.90;;;;;;5028496;28;20091;-76
2021/01/31 01:15:56;;;;;;;35.72;12.93;;;-1.20;99.90;;;;;;5026458;28;20031;-79
2021/01/31 01:18:22;;;;;;;35.55;13.55;;;-1.30;99.90;;;;;;5026175;28;20179;-77
2021/01/31 01:20:49;;;;;;;32.03;12.52;;;-1.30;99.90;;;;;;5027094;28;20045;-77
2021/01/31 01:23:15;;;;;;;31.65;12.50;;;-1.30;99.90;;;;;;5023105;28;20350;-77
2021/01/31 01:25:41;;;;;;;29.30;12.10;;;-1.40;99.90;;;;;;5026116;28;20022;-77
2021/01/31 01:28:06;;;;;;;37.78;14.02;;;-1.30;99.90;;;;;;5020336;28;20494;-78
2021/01/31 01:30:32;;;;;;;27.50;12.30;;;-1.30;99.90;;;;;;5020225;28;20510;-79
2021/01/31 01:32:59;;;;;;;31.15;11.65;;;-1.40;99.90;;;;;;5024786;28;20502;-74
2021/01/31 01:35:27;;;;;;;36.72;13.50;;;-1.40;99.90;;;;;;5026480;28;20045;-80
2021/01/31 01:37:53;;;;;;;34.33;12.77;;;-1.40;99.90;;;;;;5021755;28;20029;-79
2021/01/31 01:40:32;;;;;;;28.85;12.90;;;-1.50;99.90;;;;;;5016803;28;20640;-79
2021/01/31 01:42:58;;;;;;;32.15;14.10;;;-1.50;99.90;;;;;;5017422;28;20038;-79
2021/01/31 01:45:25;;;;;;;36.78;13.70;;;-1.60;99.90;;;;;;5025257;28;20407;-79
2021/01/31 01:47:54;;;;;;;28.50;11.45;;;-1.60;99.90;;;;;;5016997;28;20046;-78
2021/01/31 01:50:29;;;;;;;33.83;14.13;;;-1.60;99.90;;;;;;4976316;28;20034;-79
2021/01/31 01:52:58;;;;;;;37.67;12.75;;;-1.70;99.90;;;;;;4971133;28;20046;-78
2021/01/31 01:55:29;;;;;;;34.35;12.98;;;-1.60;99.90;;;;;;4975422;28;20038;-79
2021/01/31 01:58:05;;;;;;;37.92;13.48;;;-1.70;99.90;;;;;;4973938;28;20150;-79
2021/01/31 02:00:33;;;;;;;32.30;13.38;;;-1.70;99.90;;;;;;4969367;28;20042;-79
2021/01/31 02:03:10;;;;;;;26.88;10.10;;;-1.60;99.90;;;;;;4970072;28;20038;-78
2021/01/31 02:05:38;;;;;;;32.25;12.88;;;-1.60;99.90;;;;;;4976486;28;20033;-78
2021/01/31 02:08:04;;;;;;;29.10;12.45;;;-1.60;99.90;;;;;;4973691;28;20055;-79
2021/01/31 02:10:30;;;;;;;33.25;13.00;;;-1.60;99.90;;;;;;4980465;28;20034;-79
2021/01/31 02:13:00;;;;;;;32.85;12.93;;;-1.70;99.90;;;;;;4972287;28;20031;-79
2021/01/31 02:15:26;;;;;;;33.20;12.90;;;-1.70;99.90;;;;;;4976856;28;20035;-78
2021/01/31 02:18:18;;;;;;;30.33;12.77;;;-1.60;99.90;;;;;;4986110;28;20466;-78
2021/01/31 02:21:05;;;;;;;35.17;12.88;;;-1.60;99.90;;;;;;4976216;28;20039;-78
2021/01/31 02:24:12;;;;;;;30.85;12.88;;;-1.50;99.90;;;;;;4965377;28;20026;-80
2021/01/31 02:27:07;;;;;;;28.88;11.93;;;-1.50;99.90;;;;;;4954481;28;20050;-78
2021/01/31 02:30:01;;;;;;;33.55;12.07;;;-1.60;99.90;;;;;;4966782;28;20035;-79
2021/01/31 02:32:27;;;;;;;30.27;12.00;;;-1.60;99.90;;;;;;4965365;28;20019;-78
2021/01/31 02:35:04;;;;;;;28.98;13.30;;;-1.60;99.90;;;;;;4970940;28;20031;-78
2021/01/31 02:37:37;;;;;;;28.92;12.10;;;-1.60;99.90;;;;;;4972990;28;20050;-79
2021/01/31 02:40:12;;;;;;;31.17;12.98;;;-1.50;99.90;;;;;;4973916;28;20027;-79
2021/01/31 02:43:24;;;;;;;35.83;13.15;;;-1.50;99.90;;;;;;4972860;28;20023;-79
2021/01/31 02:46:06;;;;;;;29.20;11.45;;;-1.50;99.90;;;;;;4985923;28;20109;-79
2021/01/31 02:48:57;;;;;;;30.48;12.10;;;-1.50;99.90;;;;;;4984934;28;20038;-80
2021/01/31 02:51:32;;;;;;;36.75;13.95;;;-1.70;99.90;;;;;;4985885;28;20023;-80
2021/01/31 02:54:06;;;;;;;35.42;12.80;;;-1.70;99.90;;;;;;4978374;28;20027;-82
2021/01/31 02:56:54;;;;;;;32.17;12.90;;;-1.80;99.90;;;;;;4974972;28;20038;-80
2021/01/31 02:59:29;;;;;;;30.58;11.63;;;-1.70;99.90;;;;;;4973988;28;20114;-80
2021/01/31 03:02:08;;;;;;;33.38;13.63;;;-1.70;99.90;;;;;;4973181;28;20088;-80
2021/01/31 03:04:44;;;;;;;30.30;11.95;;;-1.80;99.90;;;;;;4972124;28;20027;-80
2021/01/31 03:07:21;;;;;;;29.67;12.30;;;-1.80;99.90;;;;;;4967826;28;20027;-83
2021/01/31 03:09:57;;;;;;;33.58;13.40;;;-1.70;99.90;;;;;;4973267;28;20035;-82
2021/01/31 03:12:29;;;;;;;27.55;12.18;;;-1.70;99.90;;;;;;4972406;28;20022;-82
2021/01/31 03:14:59;;;;;;;34.92;14.30;;;-1.80;99.90;;;;;;4973504;28;20487;-82
2021/01/31 03:17:43;;;;;;;34.58;13.68;;;-1.80;99.90;;;;;;4973917;28;20045;-82
2021/01/31 03:20:24;;;;;;;33.25;12.30;;;-1.90;99.90;;;;;;4974101;28;20102;-83
2021/01/31 03:23:20;;;;;;;33.38;12.73;;;-1.80;99.90;;;;;;4968712;28;20038;-82
2021/01/31 03:26:00;;;;;;;37.70;13.25;;;-1.80;99.90;;;;;;4973308;28;20054;-82
2021/01/31 03:28:25;;;;;;;31.23;13.18;;;-1.80;99.90;;;;;;4974503;28;20035;-82
2021/01/31 03:30:52;;;;;;;31.13;12.55;;;-1.80;99.90;;;;;;4974255;28;20468;-82
2021/01/31 03:33:25;;;;;;;33.92;13.23;;;-1.80;99.90;;;;;;4975168;28;20019;-82
2021/01/31 03:35:53;;;;;;;32.33;12.15;;;-1.80;99.90;;;;;;4974931;28;20046;-82
2021/01/31 03:38:27;;;;;;;33.10;12.50;;;-1.90;99.90;;;;;;4972140;28;20094;-82
2021/01/31 03:40:58;;;;;;;32.03;13.18;;;-2.00;99.90;;;;;;4973871;28;20041;-82
2021/01/31 03:43:24;;;;;;;31.60;11.65;;;-2.00;99.90;;;;;;4970653;28;20054;-82
2021/01/31 03:46:08;;;;;;;32.10;12.30;;;-2.00;99.90;;;;;;4974532;28;20106;-83
2021/01/31 03:49:00;;;;;;;31.52;11.80;;;-1.90;99.90;;;;;;4971492;28;20027;-80
2021/01/31 03:51:27;;;;;;;31.45;11.85;;;-1.90;99.90;;;;;;4975860;28;20518;-82
2021/01/31 03:53:54;;;;;;;30.25;11.85;;;-2.00;99.90;;;;;;4975537;28;20027;-83
2021/01/31 03:56:25;;;;;;;28.92;12.48;;;-1.90;99.90;;;;;;4977886;28;20022;-80
2021/01/31 03:58:54;;;;;;;31.13;10.88;;;-1.90;99.90;;;;;;4977710;28;20443;-80
2021/01/31 04:01:23;;;;;;;30.10;11.60;;;-1.90;99.90;;;;;;4977116;28;20033;-80
2021/01/31 04:03:56;;;;;;;28.05;10.30;;;-1.90;99.90;;;;;;4975999;28;20121;-81
2021/01/31 04:06:25;;;;;;;29.98;11.88;;;-1.90;99.90;;;;;;4973402;28;20105;-80
2021/01/31 04:08:54;;;;;;;31.73;12.70;;;-1.80;99.90;;;;;;4976478;28;20037;-82
2021/01/31 04:11:37;;;;;;;33.30;12.25;;;-1.80;99.90;;;;;;4976486;28;20019;-82
2021/01/31 04:14:30;;;;;;;33.53;12.15;;;-1.90;99.90;;;;;;4968889;28;20484;-82
2021/01/31 04:16:56;;;;;;;31.95;12.73;;;-1.90;99.90;;;;;;4977264;28;20039;-80
2021/01/31 04:19:22;;;;;;;30.52;11.57;;;-1.90;99.90;;;;;;4978485;28;20057;-80
2021/01/31 04:21:47;;;;;;;35.90;12.10;;;-2.10;99.90;;;;;;4977417;28;20043;-79
2021/01/31 04:24:13;;;;;;;37.25;12.82;;;-2.20;99.90;;;;;;4976255;28;20086;-80
2021/01/31 04:26:39;;;;;;;31.15;11.75;;;-2.10;99.90;;;;;;4976494;28;20027;-80
2021/01/31 04:29:05;;;;;;;30.98;11.63;;;-2.10;99.90;;;;;;4978569;28;20035;-80
2021/01/31 04:31:32;;;;;;;28.17;11.93;;;-2.20;99.90;;;;;;4976632;28;20015;-79
2021/01/31 04:33:57;;;;;;;33.72;12.02;;;-2.30;99.90;;;;;;4976798;28;20415;-79
2021/01/31 04:36:25;;;;;;;35.40;12.48;;;-2.30;99.90;;;;;;4975184;28;20030;-78
2021/01/31 04:38:51;;;;;;;20.38;8.57;;;-2.40;99.90;;;;;;4959743;28;20083;-79
2021/01/31 04:41:18;;;;;;;34.08;13.60;;;-2.40;99.90;;;;;;4975452;28;20147;-80
2021/01/31 04:43:44;;;;;;;33.63;12.63;;;-2.50;99.90;;;;;;4976865;28;20122;-81
2021/01/31 04:46:16;;;;;;;31.80;11.98;;;-2.40;99.90;;;;;;4976515;28;20030;-80
2021/01/31 04:48:54;;;;;;;31.58;12.77;;;-2.50;99.90;;;;;;4977045;28;20125;-80
2021/01/31 04:51:38;;;;;;;30.88;12.65;;;-2.40;99.90;;;;;;4974032;28;20019;-80
2021/01/31 04:54:17;;;;;;;32.22;12.25;;;-2.50;99.90;;;;;;4976686;28;20086;-79
2021/01/31 04:57:01;;;;;;;32.80;12.25;;;-2.40;99.90;;;;;;4975728;28;20082;-80
2021/01/31 04:59:35;;;;;;;39.75;13.25;;;-2.50;99.90;;;;;;4974811;28;20030;-80
2021/01/31 05:02:10;;;;;;;32.25;12.95;;;-2.50;99.90;;;;;;4976975;28;20066;-81
2021/01/31 05:04:57;;;;;;;28.10;11.75;;;-2.50;99.90;;;;;;4970280;28;20050;-80
2021/01/31 05:07:41;;;;;;;35.00;12.60;;;-2.50;99.90;;;;;;4962917;28;20043;-80
2021/01/31 05:10:08;;;;;;;30.05;12.23;;;-2.40;99.90;;;;;;4983058;28;20539;-81
2021/01/31 05:12:42;;;;;;;32.60;12.68;;;-2.30;99.90;;;;;;4973765;28;20066;-80
2021/01/31 05:15:08;;;;;;;31.70;13.15;;;-2.30;99.90;;;;;;4972069;28;20015;-80
2021/01/31 05:17:34;;;;;;;35.05;12.25;;;-2.30;99.90;;;;;;4973991;28;20486;-80
2021/01/31 05:20:04;;;;;;;32.97;12.48;;;-2.40;99.90;;;;;;4970507;28;20369;-79
2021/01/31 05:22:33;;;;;;;36.38;13.32;;;-2.40;99.90;;;;;;4967644;28;20101;-79
2021/01/31 05:24:59;;;;;;;36.38;14.32;;;-2.50;99.90;;;;;;4967271;28;20031;-80
2021/01/31 05:27:31;;;;;;;32.10;12.45;;;-2.50;99.90;;;;;;4982116;28;20072;-79
2021/01/31 05:29:56;;;;;;;33.58;12.90;;;-2.50;99.90;;;;;;4987617;28;20448;-80
2021/01/31 05:32:22;;;;;;;32.05;12.68;;;-2.50;99.90;;;;;;4971776;28;20070;-79
2021/01/31 05:34:55;;;;;;;28.52;11.50;;;-2.40;99.90;;;;;;4973669;28;20125;-80
2021/01/31 05:37:44;;;;;;;32.05;12.88;;;-2.40;99.90;;;;;;4964909;28;20027;-80
2021/01/31 05:40:20;;;;;;;35.15;12.60;;;-2.30;99.90;;;;;;4968102;28;20035;-80
2021/01/31 05:42:46;;;;;;;33.72;12.73;;;-2.30;99.90;;;;;;4976896;28;20475;-80
2021/01/31 05:45:26;;;;;;;38.25;12.48;;;-2.30;99.90;;;;;;4969653;28;20031;-81
2021/01/31 05:47:51;;;;;;;32.45;13.48;;;-2.50;99.90;;;;;;4967245;28;20146;-80
2021/01/31 05:50:32;;;;;;;30.23;12.38;;;-2.50;99.90;;;;;;4980021;28;20153;-80
2021/01/31 05:52:58;;;;;;;33.00;12.30;;;-2.50;99.90;;;;;;4964646;28;20035;-80
2021/01/31 05:55:32;;;;;;;39.97;13.48;;;-2.50;99.90;;;;;;4968892;28;20027;-80
2021/01/31 05:58:14;;;;;;;32.83;12.48;;;-2.50;99.90;;;;;;4967068;28;20093;-80
2021/01/31 06:00:40;;;;;;;33.72;12.95;;;-2.50;99.90;;;;;;4970543;28;20391;-79
2021/01/31 06:03:09;;;;;;;35.40;12.38;;;-2.50;99.90;;;;;;4975498;28;20015;-80
2021/01/31 06:05:35;;;;;;;28.38;12.52;;;-2.50;99.90;;;;;;4968078;28;20042;-80
2021/01/31 06:08:26;;;;;;;37.88;13.77;;;-2.50;99.90;;;;;;4970743;28;20046;-80
2021/01/31 06:11:07;;;;;;;32.70;12.57;;;-2.40;99.90;;;;;;4973366;28;20495;-79
2021/01/31 06:13:35;;;;;;;32.50;12.77;;;-2.40;99.90;;;;;;4977871;28;20037;-79
2021/01/31 06:16:04;;;;;;;29.42;12.70;;;-2.40;99.90;;;;;;4974038;28;20427;-79
2021/01/31 06:18:46;;;;;;;33.75;12.80;;;-2.50;99.90;;;;;;4970888;28;20423;-79
2021/01/31 06:21:15;;;;;;;35.20;13.82;;;-2.50;99.90;;;;;;4971316;28;20031;-79
2021/01/31 06:23:44;;;;;;;32.45;12.13;;;-2.50;99.90;;;;;;4972847;28;20101;-79
2021/01/31 06:26:28;;;;;;;30.83;12.82;;;-2.50;99.90;;;;;;4975331;28;20106;-79
2021/01/31 06:29:22;;;;;;;30.70;11.55;;;-2.60;99.90;;;;;;4973038;28;20070;-78
2021/01/31 06:31:57;;;;;;;35.58;13.18;;;-2.50;99.90;;;;;;4973547;28;20022;-78
2021/01/31 06:34:23;;;;;;;30.88;12.07;;;-2.50;99.90;;;;;;4968341;28;20471;-78
2021/01/31 06:37:03;;;;;;;32.60;11.77;;;-2.50;99.90;;;;;;4973988;28;20187;-77
2021/01/31 06:39:57;;;;;;;31.05;12.50;;;-2.50;99.90;;;;;;4969615;28;20041;-78
2021/01/31 06:42:58;;;;;;;33.63;11.13;;;-2.60;99.90;;;;;;4969988;28;20123;-78
2021/01/31 06:45:36;;;;;;;34.72;12.05;;;-2.50;99.90;;;;;;4962149;28;20038;-77
2021/01/31 06:48:14;;;;;;;;;;;-2.50;99.90;;;;;;4968296;28;20038;-77
2021/01/31 06:51:05;;;;;;;32.08;10.95;;;-2.50;99.90;;;;;;4985694;28;19910;-77
2021/01/31 06:53:41;;;;;;;28.35;11.45;;;-2.50;99.90;;;;;;4986408;28;20042;-78
2021/01/31 06:56:45;;;;;;;27.60;12.15;;;-2.50;99.90;;;;;;4973285;28;20161;-77
2021/01/31 06:59:14;;;;;;;35.70;13.25;;;-2.50;99.90;;;;;;4970932;28;20067;-77
2021/01/31 07:01:58;;;;;;;;;;;-2.60;99.90;;;;;;4972750;28;20109;-78
2021/01/31 07:05:04;;;;;;;30.13;10.65;;;-2.60;99.90;;;;;;4972854;28;19917;-77
2021/01/31 07:07:43;;;;;;;41.85;12.25;;;-2.70;99.90;;;;;;4966283;28;20074;-77
2021/01/31 07:10:36;;;;;;;30.45;11.43;;;-2.80;99.90;;;;;;4964797;28;20483;-77
2021/01/31 07:13:01;;;;;;;33.42;11.98;;;-2.70;99.90;;;;;;4973732;28;20027;-77
2021/01/31 07:15:36;;;;;;;35.85;12.63;;;-2.70;99.90;;;;;;4972787;28;20033;-77
2021/01/31 07:18:10;;;;;;;36.70;13.15;;;-2.70;99.90;;;;;;4974193;28;20035;-77
2021/01/31 07:20:43;;;;;;;34.83;13.07;;;-2.70;99.90;;;;;;4973397;28;20019;-77
2021/01/31 07:23:33;;;;;;;32.92;12.77;;;-2.70;99.90;;;;;;4973491;28;20098;-76
2021/01/31 07:26:14;;;;;;;31.60;11.50;;;-2.70;99.90;;;;;;4962850;28;20030;-76
2021/01/31 07:28:42;;;;;;;34.15;12.63;;;-2.70;99.90;;;;;;4975115;28;20039;-76
2021/01/31 07:31:11;;;;;;;;;;;-2.60;99.90;;;;;;4975519;28;20072;-77
2021/01/31 07:33:56;;;;;;;27.08;10.73;;;-2.60;99.90;;;;;;4975842;28;19910;-76
2021/01/31 07:36:34;;;;;;;38.28;12.50;;;-2.50;99.90;;;;;;4975099;28;20018;-76
2021/01/31 07:39:06;;;;;;;32.70;13.20;;;-2.70;99.90;;;;;;4976904;28;20026;-76
2021/01/31 07:41:33;;;;;;;38.08;13.32;;;-2.80;99.90;;;;;;4976760;28;20519;-76
2021/01/31 07:44:12;;;;;;;34.10;13.38;;;-2.80;99.90;;;;;;4977634;28;20023;-76
2021/01/31 07:46:38;;;;;;;31.08;12.57;;;-2.80;99.90;;;;;;4966546;28;20023;-76
2021/01/31 07:49:06;;;;;;;38.03;13.85;;;-2.80;99.90;;;;;;4974963;28;20571;-76
2021/01/31 07:51:37;;;;;;;31.25;12.52;;;-2.80;99.90;;;;;;4975389;28;20058;-76
2021/01/31 07:54:31;;;;;;;31.38;11.50;;;-2.70;99.90;;;;;;4976390;28;20037;-76
2021/01/31 07:57:24;;;;;;;31.92;11.82;;;-2.50;99.90;;;;;;4970649;28;20031;-76
2021/01/31 07:59:50;;;;;;;32.47;11.90;;;-2.50;99.90;;;;;;4975636;28;20387;-75
2021/01/31 08:02:37;;;;;;;32.28;13.43;;;-2.40;99.90;;;;;;4976948;28;20035;-76
2021/01/31 08:05:04;;;;;;;37.70;13.40;;;-2.40;99.90;;;;;;4976363;28;20030;-75
2021/01/31 08:07:58;;;;;;;33.88;12.23;;;-2.40;99.90;;;;;;4975965;28;20495;-76
2021/01/31 08:10:46;;;;;;;30.85;12.65;;;-2.20;99.90;;;;;;4967505;28;20133;-76
2021/01/31 08:13:32;;;;;;;33.75;13.38;;;-2.10;99.90;;;;;;4976753;28;20062;-75
2021/01/31 08:15:57;;;;;;;32.97;12.00;;;-2.20;99.90;;;;;;4976943;28;20157;-75
2021/01/31 08:18:23;;;;;;;39.33;12.75;;;-2.10;99.90;;;;;;4977017;28;20070;-74
2021/01/31 08:20:50;;;;;;;33.80;13.13;;;-2.00;99.90;;;;;;4975330;28;20031;-75
2021/01/31 08:23:30;;;;;;;35.67;13.27;;;-2.00;99.90;;;;;;4974851;28;20046;-74
2021/01/31 08:25:57;;;;;;;34.20;12.27;;;-2.00;99.90;;;;;;4974424;28;20031;-74
2021/01/31 08:28:27;;;;;;;28.45;11.85;;;-1.80;99.90;;;;;;4975332;28;20035;-74
2021/01/31 08:31:02;;;;;;;32.67;12.05;;;-1.80;99.90;;;;;;4974864;28;20038;-74
2021/01/31 08:33:29;;;;;;;34.30;12.10;;;-1.70;99.90;;;;;;4976710;28;20019;-75
2021/01/31 08:36:07;;;;;;;30.92;11.85;;;-1.70;99.90;;;;;;4975802;28;20023;-74
2021/01/31 08:38:35;;;;;;;;;;;-1.80;99.90;;;;;;4976023;28;20031;-76
2021/01/31 08:41:03;;;;;;;26.45;10.20;;;-1.70;99.90;;;;;;4973627;28;19916;-75
2021/01/31 08:43:36;;;;;;;32.17;12.23;;;-1.80;99.90;;;;;;4975004;28;20031;-75
2021/01/31 08:46:13;;;;;;;35.58;12.88;;;-1.80;99.90;;;;;;4974076;28;20030;-75
2021/01/31 08:48:39;;;;;;;32.42;12.18;;;-1.80;99.90;;;;;;4974737;28;20039;-74
2021/01/31 08:51:22;;;;;;;34.03;12.52;;;-1.80;99.90;;;;;;4972800;28;20226;-74
2021/01/31 08:54:12;;;;;;;31.45;12.68;;;-1.70;99.90;;;;;;4974317;28;20063;-74
2021/01/31 08:56:40;;;;;;;30.67;11.18;;;-1.70;99.90;;;;;;4967616;28;20388;-74
2021/01/31 08:59:17;;;;;;;21.27;8.68;;;-1.60;99.90;;;;;;4973810;28;20030;-74
2021/01/31 09:01:46;;;;;;;30.50;11.48;;;-1.60;99.90;;;;;;4973511;28;20039;-75
2021/01/31 09:04:14;;;;;;;39.30;12.10;;;-1.60;99.90;;;;;;4976172;28;20034;-75
2021/01/31 09:06:44;;;;;;;24.08;11.48;;;-1.60;99.90;;;;;;4971960;28;20435;-75
2021/01/31 09:09:23;;;;;;;34.00;12.23;;;-1.60;99.90;;;;;;4971538;28;20030;-75
2021/01/31 09:11:55;;;;;;;30.25;10.85;;;-1.60;99.90;;;;;;4971542;28;20031;-75
2021/01/31 09:14:25;;;;;;;27.13;11.13;;;-1.50;99.90;;;;;;4973262;28;20029;-75
2021/01/31 09:17:01;;;;;;;30.50;12.20;;;-1.60;99.90;;;;;;4974717;28;20583;-75
2021/01/31 09:19:27;;;;;;;25.65;10.73;;;-1.50;99.90;;;;;;4974165;28;20038;-75
2021/01/31 09:22:20;;;;;;;33.35;12.13;;;-1.50;99.90;;;;;;4973619;28;20042;-75
2021/01/31 09:24:56;;;;;;;30.92;11.73;;;-1.50;99.90;;;;;;4955855;28;20515;-77
2021/01/31 09:27:25;;;;;;;30.77;11.13;;;-1.50;99.90;;;;;;4973279;28;20042;-75
2021/01/31 09:30:06;;;;;;;30.83;11.00;;;-1.40;99.90;;;;;;4990478;28;20039;-75
2021/01/31 09:33:02;;;;;;;29.02;12.48;;;-1.40;99.90;;;;;;4979539;28;20307;-74
2021/01/31 09:35:32;;;;;;;34.40;11.73;;;-1.30;99.90;;;;;;4970710;28;20039;-74
2021/01/31 09:38:11;;;;;;;31.58;11.88;;;-1.20;99.90;;;;;;4976889;28;20025;-74
2021/01/31 09:40:38;;;;;;;27.33;10.73;;;-1.10;99.90;;;;;;4966616;28;20035;-73
2021/01/31 09:43:07;;;;;;;26.42;11.57;;;-1.10;99.90;;;;;;4973741;28;20416;-76
2021/01/31 09:45:37;;;;;;;25.77;10.50;;;-1.00;99.90;;;;;;4974944;28;20037;-76
2021/01/31 09:48:06;;;;;;;29.05;11.57;;;-0.90;99.90;;;;;;4960050;28;20031;-76
2021/01/31 09:50:32;;;;;;;26.45;10.73;;;-0.90;99.90;;;;;;4969764;28;20031;-75
2021/01/31 09:52:58;;;;;;;21.55;10.35;;;-0.80;99.90;;;;;;4963988;28;20027;-75
2021/01/31 09:55:42;;;;;;;31.90;10.43;;;-0.80;99.90;;;;;;4966474;28;20515;-75
2021/01/31 09:58:35;;;;;;;30.67;11.63;;;-0.80;99.90;;;;;;4975059;28;20030;-76
2021/01/31 10:01:13;;;;;;;29.33;11.52;;;-0.80;99.90;;;;;;4968863;28;20480;-76
2021/01/31 10:03:40;;;;;;;22.50;9.43;;;-0.70;99.90;;;;;;4973155;28;20066;-75
2021/01/31 10:06:07;;;;;;;25.27;10.38;;;-0.70;99.90;;;;;;4964929;28;20360;-75
2021/01/31 10:08:34;;;;;;;24.08;9.70;;;-0.60;99.90;;;;;;4973500;28;20050;-75
2021/01/31 10:11:30;;;;;;;24.50;10.10;;;-0.50;99.90;;;;;;4986902;28;20030;-75
2021/01/31 10:13:56;;;;;;;21.60;9.75;;;-0.40;99.90;;;;;;4977130;28;20394;-75
2021/01/31 10:16:29;;;;;;;26.17;10.30;;;-0.30;99.90;;;;;;4967806;28;20034;-75
2021/01/31 10:19:08;;;;;;;23.77;10.15;;;-0.20;99.90;;;;;;4978671;28;20467;-76
2021/01/31 10:21:35;;;;;;;27.15;10.32;;;-0.10;99.90;;;;;;4981505;28;20058;-76
2021/01/31 10:24:09;;;;;;;27.70;11.10;;;-0.10;99.90;;;;;;4974930;28;20077;-75
2021/01/31 10:26:35;;;;;;;25.13;10.40;;;0.00;99.90;;;;;;4975263;28;20053;-75
2021/01/31 10:29:04;;;;;;;23.33;10.43;;;0.10;99.90;;;;;;4975376;28;20058;-75
2021/01/31 10:31:40;;;;;;;24.70;10.98;;;0.10;99.90;;;;;;4973178;28;20049;-75
2021/01/31 10:34:12;;;;;;;24.83;9.95;;;0.10;99.90;;;;;;4974797;28;20106;-75
2021/01/31 10:36:45;;;;;;;23.05;9.60;;;0.20;99.90;;;;;;4972914;28;20038;-75
2021/01/31 10:39:13;;;;;;;21.23;9.63;;;0.20;99.90;;;;;;4974760;28;20511;-75
2021/01/31 10:41:44;;;;;;;18.00;8.68;;;0.30;99.90;;;;;;4972961;28;20023;-75
2021/01/31 10:44:27;;;;;;;26.45;10.85;;;0.40;99.90;;;;;;4974738;28;20045;-75
2021/01/31 10:46:53;;;;;;;23.23;9.30;;;0.50;99.90;;;;;;4971628;28;20042;-71
2021/01/31 10:49:19;;;;;;;22.55;10.25;;;0.60;99.90;;;;;;4973662;28;20030;-75
2021/01/31 10:51:45;;;;;;;22.50;9.68;;;0.70;99.90;;;;;;4973712;28;20038;-74
2021/01/31 10:54:13;;;;;;;27.45;10.13;;;0.60;99.90;;;;;;4971449;28;20026;-74
2021/01/31 10:56:38;;;;;;;24.17;10.43;;;0.60;99.90;;;;;;4974220;28;20467;-74
2021/01/31 10:59:04;;;;;;;27.35;9.80;;;0.60;99.90;;;;;;4973007;28;20027;-74
2021/01/31 11:01:30;;;;;;;24.70;11.13;;;0.60;99.90;;;;;;4973806;28;20037;-74
2021/01/31 11:03:56;;;;;;;23.13;10.40;;;0.60;99.90;;;;;;4974308;28;20104;-74
2021/01/31 11:06:22;;;;;;;22.05;9.85;;;0.70;99.90;;;;;;4973020;28;20038;-74
2021/01/31 11:08:48;;;;;;;26.52;10.10;;;0.70;99.90;;;;;;4972699;28;20085;-74
2021/01/31 11:11:15;;;;;;;23.23;9.82;;;0.90;99.90;;;;;;4969759;28;20460;-74
2021/01/31 11:13:40;;;;;;;21.10;9.70;;;1.00;99.90;;;;;;4973742;28;20022;-74
2021/01/31 11:16:06;;;;;;;20.38;9.27;;;1.10;99.90;;;;;;4973864;28;20027;-74
2021/01/31 11:18:32;;;;;;;22.83;9.23;;;1.30;99.90;;;;;;4972752;28;20436;-78
2021/01/31 11:20:57;;;;;;;20.77;9.80;;;1.40;99.90;;;;;;4985360;28;20035;-76
2021/01/31 11:23:23;;;;;;;18.88;9.35;;;1.50;99.90;;;;;;4972150;28;20031;-77
2021/01/31 11:25:49;;;;;;;23.13;10.45;;;1.60;99.90;;;;;;4972146;28;20114;-77
2021/01/31 11:28:17;;;;;;;16.63;8.00;;;1.70;99.90;;;;;;4971449;28;20085;-77
2021/01/31 11:30:42;;;;;;;;;;;1.70;99.90;;;;;;4973882;28;20066;-77
2021/01/31 11:33:09;;;;;;;19.45;8.57;;;1.70;99.90;;;;;;4971752;28;19946;-77
2021/01/31 11:35:35;;;;;;;17.50;9.60;;;1.70;99.90;;;;;;4970916;28;20019;-77
2021/01/31 11:38:00;;;;;;;19.30;8.68;;;1.90;99.90;;;;;;4972830;28;20035;-77
2021/01/31 11:40:26;;;;;;;20.63;8.75;;;2.10;99.90;;;;;;4971852;28;20023;-77
2021/01/31 11:42:52;;;;;;;18.02;8.52;;;2.10;99.90;;;;;;4971284;28;20030;-77
2021/01/31 11:45:20;;;;;;;18.25;7.93;;;2.10;99.90;;;;;;4968167;28;20015;-78
2021/01/31 11:47:46;;;;;;;17.00;8.10;;;2.10;99.90;;;;;;4985527;28;20050;-77
2021/01/31 11:50:13;;;;;;;17.25;7.78;;;2.10;99.90;;;;;;4968488;28;20069;-74
2021/01/31 11:52:38;;;;;;;19.27;8.88;;;2.20;99.90;;;;;;4973098;28;20046;-75
2021/01/31 11:55:06;;;;;;;19.27;8.65;;;2.30;99.90;;;;;;4979263;28;20023;-75
2021/01/31 11:57:31;;;;;;;20.10;8.32;;;2.30;99.90;;;;;;4973830;28;20023;-74
2021/01/31 11:59:57;;;;;;;21.20;8.75;;;2.30;99.90;;;;;;4988437;28;20046;-74
2021/01/31 12:02:23;;;;;;;18.17;8.18;;;2.30;99.90;;;;;;4964385;28;20070;-77
2021/01/31 12:04:48;;;;;;;15.63;7.47;;;2.40;99.90;;;;;;4969336;28;20042;-76
2021/01/31 12:07:14;;;;;;;14.95;6.88;;;2.50;99.90;;;;;;4973793;28;20364;-77
2021/01/31 12:09:40;;;;;;;18.88;8.70;;;2.50;99.90;;;;;;4969013;28;20031;-75
2021/01/31 12:12:07;;;;;;;15.70;7.57;;;2.50;99.90;;;;;;4966701;28;20027;-75
2021/01/31 12:14:32;;;;;;;17.27;7.97;;;2.60;99.90;;;;;;4977413;28;20410;-74
2021/01/31 12:16:58;;;;;;;15.75;6.88;;;2.60;99.90;;;;;;4985381;28;20015;-76
2021/01/31 12:19:24;;;;;;;16.38;8.27;;;2.60;99.90;;;;;;4977135;28;20034;-75
2021/01/31 12:21:50;;;;;;;19.50;9.02;;;2.60;99.90;;;;;;4975663;28;20039;-75
2021/01/31 12:24:16;;;;;;;18.02;7.55;;;2.50;99.90;;;;;;4995912;28;20058;-76
2021/01/31 12:26:42;;;;;;;18.13;7.13;;;2.50;99.90;;;;;;4986492;28;20392;-75
2021/01/31 12:29:08;;;;;;;14.95;7.45;;;2.40;99.90;;;;;;4988250;28;20041;-75
2021/01/31 12:31:33;;;;;;;15.40;8.10;;;2.50;99.90;;;;;;4980330;28;20030;-76
2021/01/31 12:33:59;;;;;;;14.70;6.60;;;2.60;99.90;;;;;;4975237;28;20039;-75
2021/01/31 12:36:24;;;;;;;16.52;7.60;;;2.60;99.90;;;;;;4972643;28;20042;-76
2021/01/31 12:38:50;;;;;;;13.15;6.70;;;2.70;99.90;;;;;;4975418;28;20058;-75
2021/01/31 12:41:16;;;;;;;16.02;7.60;;;2.80;99.90;;;;;;4973965;28;20106;-74
2021/01/31 12:43:41;;;;;;;14.90;7.22;;;2.90;99.90;;;;;;4972923;28;20521;-74
2021/01/31 12:46:07;;;;;;;17.58;8.52;;;3.00;99.90;;;;;;4986926;28;20061;-75
2021/01/31 12:48:33;;;;;;;14.05;7.10;;;3.10;99.90;;;;;;4974649;28;20027;-75
2021/01/31 12:50:58;;;;;;;12.65;6.88;;;3.20;99.90;;;;;;4975488;28;20019;-74
2021/01/31 12:53:24;;;;;;;12.23;6.28;;;3.20;99.90;;;;;;4974886;28;20037;-75
2021/01/31 12:55:50;;;;;;;13.05;6.88;;;3.20;99.90;;;;;;4970153;28;20360;-75
2021/01/31 12:58:15;;;;;;;16.05;9.05;;;3.30;99.90;;;;;;4974008;28;20022;-75